createdAt,value
2023-01-22T00:00:41.995Z,4.07
2023-01-22T00:01:44.516Z,4.10
2023-01-22T00:02:49.337Z,4.30
2023-01-22T00:03:54.049Z,4.18
2023-01-22T00:04:57.211Z,4.53
2023-01-22T00:05:59.839Z,4.25
2023-01-22T00:07:04.755Z,4.10
2023-01-22T00:08:07.328Z,4.65
2023-01-22T00:09:10.010Z,4.38
2023-01-22T00:10:13.249Z,4.15
2023-01-22T00:11:17.120Z,4.40
2023-01-22T00:12:19.539Z,3.88
2023-01-22T00:13:24.562Z,4.68
2023-01-22T00:14:27.189Z,3.88
2023-01-22T00:15:29.877Z,4.70
2023-01-22T00:16:32.482Z,4.50
2023-01-22T00:17:35.145Z,5.10
2023-01-22T00:18:37.745Z,4.55
2023-01-22T00:19:42.833Z,4.70
2023-01-22T00:20:49.797Z,4.20
2023-01-22T00:21:54.632Z,4.72
2023-01-22T00:22:57.210Z,4.63
2023-01-22T00:24:01.367Z,4.55
2023-01-22T00:25:05.665Z,4.50
2023-01-22T00:26:12.117Z,4.63
2023-01-22T00:27:16.761Z,4.50
2023-01-22T00:28:19.404Z,4.13
2023-01-22T00:29:22.960Z,4.15
2023-01-22T00:30:25.585Z,4.65
2023-01-22T00:31:28.118Z,4.63
2023-01-22T00:32:30.677Z,4.45
2023-01-22T00:33:34.155Z,4.00
2023-01-22T00:35:39.984Z,4.55
2023-01-22T00:36:42.561Z,3.78
2023-01-22T00:37:47.711Z,4.43
2023-01-22T00:38:51.578Z,3.78
2023-01-22T00:39:54.079Z,4.72
2023-01-22T00:40:56.782Z,4.18
2023-01-22T00:41:59.307Z,4.25
2023-01-22T00:43:01.770Z,4.72
2023-01-22T00:44:04.326Z,3.58
2023-01-22T00:45:07.530Z,3.83
2023-01-22T00:46:12.928Z,3.90
2023-01-22T00:47:17.405Z,4.45
2023-01-22T00:48:20.025Z,4.00
2023-01-22T00:49:25.498Z,3.28
2023-01-22T00:50:28.558Z,4.25
2023-01-22T00:51:33.557Z,4.15
2023-01-22T00:52:37.974Z,3.15
2023-01-22T00:53:41.787Z,3.95
2023-01-22T00:54:45.909Z,4.47
2023-01-22T00:55:56.616Z,4.07
2023-01-22T00:56:59.685Z,4.43
2023-01-22T00:58:05.110Z,4.10
2023-01-22T00:59:10.750Z,4.20
2023-01-22T01:00:18.861Z,3.70
2023-01-22T01:02:26.319Z,4.00
2023-01-22T01:03:32.927Z,4.25
2023-01-22T01:04:35.792Z,3.67
2023-01-22T01:05:38.295Z,4.47
2023-01-22T01:06:41.279Z,4.20
2023-01-22T01:07:52.820Z,4.30
2023-01-22T01:08:57.472Z,4.95
2023-01-22T01:10:00.081Z,4.15
2023-01-22T01:11:13.603Z,3.78
2023-01-22T01:12:16.392Z,4.13
2023-01-22T01:13:19.611Z,4.43
2023-01-22T01:14:22.315Z,3.60
2023-01-22T01:15:25.005Z,3.70
2023-01-22T01:16:32.743Z,4.05
2023-01-22T01:17:36.357Z,3.97
2023-01-22T01:18:39.236Z,4.25
2023-01-22T01:19:50.405Z,4.40
2023-01-22T01:20:57.150Z,4.40
2023-01-22T01:22:04.281Z,4.22
2023-01-22T01:23:10.415Z,3.75
2023-01-22T01:24:13.354Z,3.75
2023-01-22T01:25:15.996Z,4.32
2023-01-22T01:26:18.487Z,4.32
2023-01-22T01:27:21.554Z,4.15
2023-01-22T01:28:25.176Z,3.95
2023-01-22T01:29:28.125Z,4.47
2023-01-22T01:30:30.633Z,4.00
2023-01-22T01:31:33.352Z,4.22
2023-01-22T01:32:35.881Z,4.40
2023-01-22T01:33:38.694Z,4.55
2023-01-22T01:34:41.220Z,3.80
2023-01-22T01:35:43.675Z,4.30
2023-01-22T01:36:49.588Z,4.07
2023-01-22T01:37:53.748Z,3.75
2023-01-22T01:38:56.765Z,3.58
2023-01-22T01:39:59.341Z,4.65
2023-01-22T01:41:02.293Z,4.18
2023-01-22T01:42:04.799Z,4.50
2023-01-22T01:43:16.914Z,4.63
2023-01-22T01:44:21.837Z,4.38
2023-01-22T01:45:30.441Z,3.75
2023-01-22T01:46:35.423Z,4.40
2023-01-22T01:47:38.054Z,4.70
2023-01-22T01:48:46.999Z,4.53
2023-01-22T01:49:56.578Z,3.83
2023-01-22T01:51:05.273Z,4.38
2023-01-22T01:52:12.970Z,4.72
2023-01-22T01:53:15.809Z,4.47
2023-01-22T01:54:18.450Z,5.18
2023-01-22T01:55:27.092Z,4.78
2023-01-22T01:56:39.701Z,4.65
2023-01-22T01:57:43.725Z,3.95
2023-01-22T01:58:54.869Z,4.70
2023-01-22T01:59:59.224Z,4.13
2023-01-22T02:02:09.085Z,4.90
2023-01-22T02:03:11.952Z,4.75
2023-01-22T02:04:15.474Z,4.95
2023-01-22T02:05:20.787Z,5.03
2023-01-22T02:06:23.735Z,5.07
2023-01-22T02:07:26.195Z,4.68
2023-01-22T02:08:28.841Z,5.00
2023-01-22T02:09:32.685Z,4.55
2023-01-22T02:10:42.622Z,5.15
2023-01-22T02:11:45.819Z,4.90
2023-01-22T02:12:48.173Z,4.57
2023-01-22T02:14:00.095Z,5.32
2023-01-22T02:15:04.261Z,5.18
2023-01-22T02:16:08.074Z,4.65
2023-01-22T02:17:16.814Z,4.78
2023-01-22T02:18:19.506Z,4.88
2023-01-22T02:19:24.239Z,4.95
2023-01-22T02:20:27.639Z,4.50
2023-01-22T02:21:33.676Z,4.55
2023-01-22T02:22:39.703Z,4.32
2023-01-22T02:23:42.234Z,4.55
2023-01-22T02:24:44.723Z,4.70
2023-01-22T02:25:47.346Z,5.57
2023-01-22T02:26:49.878Z,5.53
2023-01-22T02:27:55.564Z,5.40
2023-01-22T02:28:58.997Z,5.57
2023-01-22T02:30:06.149Z,5.00
2023-01-22T02:31:10.710Z,5.53
2023-01-22T02:32:13.988Z,5.18
2023-01-22T02:33:16.989Z,5.43
2023-01-22T02:34:24.663Z,4.78
2023-01-22T02:35:27.567Z,5.70
2023-01-22T02:36:31.672Z,5.63
2023-01-22T02:38:37.220Z,5.15
2023-01-22T02:39:40.009Z,6.05
2023-01-22T02:40:49.494Z,5.63
2023-01-22T02:41:54.915Z,5.35
2023-01-22T02:42:57.810Z,5.40
2023-01-22T02:44:00.534Z,6.18
2023-01-22T02:45:05.163Z,5.97
2023-01-22T02:46:07.773Z,6.38
2023-01-22T02:47:10.482Z,5.85
2023-01-22T02:48:22.289Z,6.93
2023-01-22T02:49:24.898Z,5.93
2023-01-22T02:50:27.456Z,5.80
2023-01-22T02:51:30.067Z,5.72
2023-01-22T02:52:32.993Z,6.13
2023-01-22T02:53:35.723Z,5.32
2023-01-22T02:54:38.287Z,6.20
2023-01-22T02:55:41.014Z,5.35
2023-01-22T02:56:44.756Z,6.75
2023-01-22T02:57:48.419Z,6.15
2023-01-22T02:58:52.329Z,6.22
2023-01-22T02:59:55.968Z,5.70
2023-01-22T03:00:58.515Z,6.03
2023-01-22T03:02:01.731Z,6.50
2023-01-22T03:03:17.571Z,5.97
2023-01-22T03:04:24.483Z,6.15
2023-01-22T03:05:26.990Z,5.57
2023-01-22T03:06:30.257Z,5.78
2023-01-22T03:07:47.904Z,6.10
2023-01-22T03:08:53.328Z,6.18
2023-01-22T03:09:56.496Z,5.82
2023-01-22T03:10:59.466Z,6.38
2023-01-22T03:12:09.128Z,5.82
2023-01-22T03:13:39.346Z,5.18
2023-01-22T03:15:03.336Z,5.85
2023-01-22T03:16:24.839Z,5.72
2023-01-22T03:17:46.521Z,5.50
2023-01-22T03:20:33.432Z,5.43
2023-01-22T03:21:45.444Z,5.45
2023-01-22T03:22:47.954Z,5.82
2023-01-22T03:23:54.691Z,5.72
2023-01-22T03:24:58.867Z,5.82
2023-01-22T03:26:04.230Z,6.50
2023-01-22T03:27:07.255Z,5.78
2023-01-22T03:28:16.778Z,6.00
2023-01-22T03:29:24.500Z,5.82
2023-01-22T03:30:27.591Z,6.35
2023-01-22T03:31:31.257Z,5.80
2023-01-22T03:32:33.814Z,5.82
2023-01-22T03:33:36.955Z,6.00
2023-01-22T03:34:42.720Z,5.75
2023-01-22T03:35:45.298Z,5.65
2023-01-22T03:36:53.400Z,6.32
2023-01-22T03:37:56.073Z,6.28
2023-01-22T03:38:58.733Z,6.95
2023-01-22T03:40:01.430Z,5.63
2023-01-22T03:41:14.881Z,5.80
2023-01-22T03:42:19.366Z,6.22
2023-01-22T03:43:22.070Z,5.88
2023-01-22T03:44:24.697Z,6.10
2023-01-22T03:45:29.745Z,6.07
2023-01-22T03:46:32.815Z,6.00
2023-01-22T03:47:35.524Z,5.25
2023-01-22T03:48:52.669Z,6.35
2023-01-22T03:49:55.467Z,6.28
2023-01-22T03:51:03.785Z,6.18
2023-01-22T03:52:06.401Z,6.15
2023-01-22T03:53:09.295Z,6.38
2023-01-22T03:54:13.282Z,6.00
2023-01-22T03:55:16.000Z,5.75
2023-01-22T03:56:21.526Z,5.97
2023-01-22T03:57:28.018Z,6.60
2023-01-22T03:58:32.236Z,5.78
2023-01-22T03:59:34.914Z,5.53
2023-01-22T04:00:37.870Z,6.40
2023-01-22T04:01:42.111Z,6.53
2023-01-22T04:02:44.700Z,6.50
2023-01-22T04:03:55.703Z,5.82
2023-01-22T04:05:01.597Z,5.13
2023-01-22T04:06:05.855Z,5.35
2023-01-22T04:07:11.755Z,5.72
2023-01-22T04:08:15.569Z,5.55
2023-01-22T04:09:20.341Z,5.30
2023-01-22T04:10:24.124Z,5.05
2023-01-22T04:11:26.744Z,5.60
2023-01-22T04:12:29.557Z,5.53
2023-01-22T04:13:33.880Z,5.15
2023-01-22T04:14:36.837Z,5.22
2023-01-22T04:15:39.946Z,5.43
2023-01-22T04:16:59.768Z,4.80
2023-01-22T04:18:23.088Z,4.85
2023-01-22T04:19:40.099Z,6.30
2023-01-22T04:21:24.308Z,5.13
2023-01-22T04:22:29.816Z,4.50
2023-01-22T04:23:32.731Z,5.00
2023-01-22T04:24:36.620Z,6.15
2023-01-22T04:25:40.788Z,5.75
2023-01-22T04:26:43.703Z,4.72
2023-01-22T04:27:51.001Z,5.35
2023-01-22T04:28:56.333Z,5.57
2023-01-22T04:29:59.992Z,5.47
2023-01-22T04:31:04.475Z,6.00
2023-01-22T04:32:28.074Z,4.90
2023-01-22T04:33:50.921Z,4.97
2023-01-22T04:35:01.555Z,4.72
2023-01-22T04:36:34.144Z,5.03
2023-01-22T04:37:36.886Z,6.00
2023-01-22T04:38:42.995Z,5.35
2023-01-22T04:39:45.475Z,6.20
2023-01-22T04:40:54.876Z,4.57
2023-01-22T04:41:58.301Z,5.05
2023-01-22T04:43:06.707Z,5.53
2023-01-22T04:44:09.308Z,6.20
2023-01-22T04:45:14.113Z,5.38
2023-01-22T04:46:17.098Z,5.70
2023-01-22T04:47:20.906Z,4.97
2023-01-22T04:48:24.676Z,6.88
2023-01-22T04:49:27.333Z,6.68
2023-01-22T04:50:33.331Z,6.15
2023-01-22T04:51:39.794Z,6.05
2023-01-22T04:52:42.407Z,5.45
2023-01-22T04:53:45.622Z,5.50
2023-01-22T04:55:54.781Z,5.68
2023-01-22T04:56:57.855Z,5.80
2023-01-22T04:58:01.978Z,6.25
2023-01-22T04:59:04.998Z,5.97
2023-01-22T05:00:09.172Z,6.28
2023-01-22T05:01:12.540Z,5.97
2023-01-22T05:02:15.080Z,6.57
2023-01-22T05:03:18.152Z,5.60
2023-01-22T05:04:21.985Z,6.40
2023-01-22T05:05:27.232Z,5.95
2023-01-22T05:06:31.171Z,6.15
2023-01-22T05:07:34.533Z,6.38
2023-01-22T05:08:37.148Z,5.47
2023-01-22T05:09:39.866Z,6.35
2023-01-22T05:10:42.341Z,6.53
2023-01-22T05:11:47.244Z,5.95
2023-01-22T05:12:50.713Z,6.55
2023-01-22T05:14:57.210Z,5.80
2023-01-22T05:15:59.812Z,6.13
2023-01-22T05:17:02.506Z,5.55
2023-01-22T05:18:05.339Z,5.88
2023-01-22T05:19:11.614Z,6.20
2023-01-22T05:20:14.114Z,6.18
2023-01-22T05:21:16.629Z,6.30
2023-01-22T05:22:19.134Z,6.90
2023-01-22T05:23:23.281Z,5.57
2023-01-22T05:24:25.923Z,5.82
2023-01-22T05:25:29.035Z,6.03
2023-01-22T05:26:33.954Z,6.85
2023-01-22T05:27:41.065Z,6.45
2023-01-22T05:28:49.369Z,6.45
2023-01-22T05:30:04.507Z,6.65
2023-01-22T05:31:30.572Z,6.95
2023-01-22T05:32:38.450Z,6.60
2023-01-22T05:33:42.852Z,5.88
2023-01-22T05:34:47.492Z,6.72
2023-01-22T05:36:00.801Z,6.55
2023-01-22T05:38:11.518Z,5.53
2023-01-22T05:39:16.102Z,7.03
2023-01-22T05:40:21.211Z,6.60
2023-01-22T05:41:24.155Z,7.28
2023-01-22T05:42:28.786Z,6.60
2023-01-22T05:43:32.023Z,6.30
2023-01-22T05:44:41.474Z,6.40
2023-01-22T05:45:44.094Z,6.97
2023-01-22T05:47:04.763Z,6.50
2023-01-22T05:48:16.454Z,6.47
2023-01-22T05:49:28.199Z,6.57
2023-01-22T05:50:32.363Z,5.93
2023-01-22T05:51:44.065Z,6.38
2023-01-22T05:52:46.995Z,5.80
2023-01-22T05:53:49.779Z,5.38
2023-01-22T05:54:52.279Z,6.05
2023-01-22T05:55:54.710Z,6.03
2023-01-22T05:56:57.941Z,5.80
2023-01-22T05:58:01.600Z,5.60
2023-01-22T05:59:04.413Z,6.35
2023-01-22T06:00:08.793Z,6.38
2023-01-22T06:01:18.875Z,5.70
2023-01-22T06:02:25.211Z,7.05
2023-01-22T06:03:29.099Z,6.38
2023-01-22T06:04:32.865Z,6.57
2023-01-22T06:05:37.355Z,6.97
2023-01-22T06:06:43.531Z,5.80
2023-01-22T06:07:45.991Z,6.30
2023-01-22T06:08:52.767Z,6.50
2023-01-22T06:09:57.693Z,5.70
2023-01-22T06:11:13.249Z,5.55
2023-01-22T06:12:19.941Z,6.60
2023-01-22T06:13:22.867Z,6.13
2023-01-22T06:14:31.686Z,6.15
2023-01-22T06:15:35.454Z,5.53
2023-01-22T06:16:51.072Z,6.10
2023-01-22T06:18:14.887Z,6.22
2023-01-22T06:19:17.912Z,5.45
2023-01-22T06:20:26.632Z,6.07
2023-01-22T06:21:29.074Z,5.85
2023-01-22T06:22:32.417Z,6.30
2023-01-22T06:23:37.472Z,6.15
2023-01-22T06:24:41.287Z,6.05
2023-01-22T06:25:45.523Z,6.35
2023-01-22T06:26:55.487Z,7.38
2023-01-22T06:28:05.001Z,5.78
2023-01-22T06:29:08.715Z,6.05
2023-01-22T06:30:12.445Z,6.15
2023-01-22T06:31:15.047Z,6.03
2023-01-22T06:32:17.909Z,6.43
2023-01-22T06:33:20.481Z,6.18
2023-01-22T06:34:23.387Z,6.07
2023-01-22T06:35:27.001Z,6.13
2023-01-22T06:36:30.221Z,5.85
2023-01-22T06:37:33.607Z,5.95
2023-01-22T06:38:39.176Z,6.90
2023-01-22T06:39:43.880Z,6.63
2023-01-22T06:40:58.209Z,6.15
2023-01-22T06:42:00.857Z,6.18
2023-01-22T06:43:10.683Z,6.30
2023-01-22T06:44:14.385Z,6.75
2023-01-22T06:45:17.965Z,6.10
2023-01-22T06:46:26.093Z,6.00
2023-01-22T06:47:51.816Z,6.97
2023-01-22T06:48:54.655Z,5.88
2023-01-22T06:49:58.347Z,5.50
2023-01-22T06:51:01.523Z,6.22
2023-01-22T06:52:07.390Z,6.25
2023-01-22T06:53:11.181Z,6.00
2023-01-22T06:54:13.738Z,6.20
2023-01-22T06:55:16.550Z,5.88
2023-01-22T06:56:19.039Z,6.28
2023-01-22T06:57:21.647Z,6.18
2023-01-22T06:58:24.130Z,5.90
2023-01-22T06:59:26.763Z,6.22
2023-01-22T07:00:29.616Z,5.80
2023-01-22T07:01:32.120Z,5.80
2023-01-22T07:02:34.912Z,6.30
2023-01-22T07:03:37.415Z,6.10
2023-01-22T07:04:39.805Z,6.72
2023-01-22T07:05:42.620Z,7.38
2023-01-22T07:06:45.742Z,6.15
2023-01-22T07:07:48.669Z,6.60
2023-01-22T07:08:52.697Z,7.47
2023-01-22T07:09:56.545Z,5.70
2023-01-22T07:11:00.135Z,6.05
2023-01-22T07:12:02.616Z,6.30
2023-01-22T07:13:05.167Z,6.32
2023-01-22T07:14:07.753Z,6.70
2023-01-22T07:15:10.437Z,6.90
2023-01-22T07:16:13.027Z,6.90
2023-01-22T07:17:15.486Z,6.40
2023-01-22T07:18:22.097Z,6.50
2023-01-22T07:19:24.699Z,6.30
2023-01-22T07:20:27.330Z,7.30
2023-01-22T07:21:29.910Z,6.75
2023-01-22T07:22:35.395Z,6.47
2023-01-22T07:23:38.992Z,5.45
2023-01-22T07:24:41.568Z,5.72
2023-01-22T07:25:46.173Z,5.57
2023-01-22T07:26:49.563Z,5.72
2023-01-22T07:27:52.114Z,6.03
2023-01-22T07:28:54.947Z,5.75
2023-01-22T07:29:57.413Z,6.38
2023-01-22T07:31:00.081Z,6.15
2023-01-22T07:32:02.875Z,6.82
2023-01-22T07:33:05.318Z,6.63
2023-01-22T07:34:08.018Z,6.22
2023-01-22T07:35:10.497Z,6.07
2023-01-22T07:36:13.105Z,6.53
2023-01-22T07:37:15.820Z,6.50
2023-01-22T07:38:18.316Z,6.10
2023-01-22T07:39:20.917Z,5.88
2023-01-22T07:40:24.496Z,5.80
2023-01-22T07:41:27.053Z,6.13
2023-01-22T07:42:29.583Z,5.53
2023-01-22T07:43:32.712Z,6.93
2023-01-22T07:44:37.164Z,6.72
2023-01-22T07:45:39.710Z,6.20
2023-01-22T07:46:49.718Z,6.78
2023-01-22T07:47:59.626Z,5.55
2023-01-22T07:49:02.262Z,5.97
2023-01-22T07:50:05.215Z,6.00
2023-01-22T07:51:08.437Z,6.18
2023-01-22T07:52:11.085Z,5.32
2023-01-22T07:53:13.644Z,6.30
2023-01-22T07:54:18.486Z,6.85
2023-01-22T07:55:21.734Z,6.60
2023-01-22T07:56:24.556Z,7.95
2023-01-22T07:57:27.271Z,10.00
2023-01-22T07:58:32.303Z,10.00
2023-01-22T07:59:35.526Z,11.98
2023-01-22T08:00:38.280Z,9.18
2023-01-22T08:01:41.053Z,8.48
2023-01-22T08:02:43.688Z,9.77
2023-01-22T08:03:46.280Z,13.35
2023-01-22T08:04:48.658Z,13.70
2023-01-22T08:05:51.165Z,9.60
2023-01-22T08:06:53.737Z,8.02
2023-01-22T08:07:56.174Z,6.82
2023-01-22T08:08:59.693Z,6.57
2023-01-22T08:10:02.859Z,6.00
2023-01-22T08:11:08.495Z,6.68
2023-01-22T08:12:11.927Z,7.13
2023-01-22T08:13:14.642Z,7.15
2023-01-22T08:14:17.288Z,6.20
2023-01-22T08:15:19.974Z,7.10
2023-01-22T08:16:22.900Z,7.57
2023-01-22T08:17:25.501Z,6.88
2023-01-22T08:18:28.266Z,6.55
2023-01-22T08:19:31.170Z,6.82
2023-01-22T08:20:33.950Z,6.68
2023-01-22T08:21:36.571Z,6.22
2023-01-22T08:22:39.112Z,7.22
2023-01-22T08:23:47.500Z,8.07
2023-01-22T08:24:51.562Z,7.25
2023-01-22T08:25:54.101Z,7.15
2023-01-22T08:26:56.470Z,8.10
2023-01-22T08:28:03.021Z,7.65
2023-01-22T08:29:07.693Z,6.53
2023-01-22T08:30:13.902Z,7.05
2023-01-22T08:31:27.407Z,8.05
2023-01-22T08:32:31.201Z,7.68
2023-01-22T08:33:34.140Z,6.40
2023-01-22T08:34:36.656Z,6.88
2023-01-22T08:35:39.974Z,7.03
2023-01-22T08:36:42.688Z,7.70
2023-01-22T08:37:45.332Z,7.57
2023-01-22T08:38:50.602Z,7.10
2023-01-22T08:39:53.240Z,7.03
2023-01-22T08:40:55.800Z,7.50
2023-01-22T08:41:59.076Z,6.88
2023-01-22T08:43:01.611Z,7.22
2023-01-22T08:44:04.075Z,7.45
2023-01-22T08:45:07.859Z,7.35
2023-01-22T08:46:10.382Z,7.82
2023-01-22T08:47:13.488Z,7.63
2023-01-22T08:48:16.836Z,8.35
2023-01-22T08:49:21.633Z,8.15
2023-01-22T08:50:24.370Z,7.95
2023-01-22T08:51:27.101Z,8.57
2023-01-22T08:52:29.775Z,8.02
2023-01-22T08:53:32.446Z,7.60
2023-01-22T08:54:35.012Z,7.75
2023-01-22T08:55:37.638Z,7.45
2023-01-22T08:56:40.080Z,8.02
2023-01-22T08:57:42.602Z,7.47
2023-01-22T08:58:49.338Z,7.97
2023-01-22T09:00:00.797Z,8.60
2023-01-22T09:01:03.994Z,8.65
2023-01-22T09:02:10.092Z,8.77
2023-01-22T09:03:13.313Z,8.27
2023-01-22T09:04:18.873Z,8.00
2023-01-22T09:05:21.463Z,8.68
2023-01-22T09:06:24.126Z,8.52
2023-01-22T09:07:29.205Z,8.85
2023-01-22T09:08:32.073Z,9.45
2023-01-22T09:09:35.483Z,8.50
2023-01-22T09:10:38.015Z,8.30
2023-01-22T09:11:41.104Z,8.48
2023-01-22T09:12:43.689Z,7.65
2023-01-22T09:13:46.233Z,7.55
2023-01-22T09:14:48.857Z,6.70
2023-01-22T09:15:51.393Z,6.93
2023-01-22T09:16:53.998Z,7.35
2023-01-22T09:17:56.949Z,6.70
2023-01-22T09:18:59.751Z,6.32
2023-01-22T09:20:02.255Z,6.80
2023-01-22T09:21:05.807Z,6.20
2023-01-22T09:22:08.273Z,5.70
2023-01-22T09:23:10.882Z,5.88
2023-01-22T09:24:13.583Z,6.90
2023-01-22T09:25:16.519Z,7.35
2023-01-22T09:26:19.118Z,8.52
2023-01-22T09:27:21.617Z,8.65
2023-01-22T09:28:26.731Z,8.13
2023-01-22T09:29:29.310Z,8.55
2023-01-22T09:30:32.487Z,7.22
2023-01-22T09:31:37.998Z,7.35
2023-01-22T09:32:41.496Z,9.25
2023-01-22T09:33:44.517Z,8.77
2023-01-22T09:34:47.018Z,8.98
2023-01-22T09:35:49.454Z,7.70
2023-01-22T09:36:52.028Z,8.85
2023-01-22T09:37:55.282Z,7.35
2023-01-22T09:38:57.871Z,7.07
2023-01-22T09:40:00.430Z,7.07
2023-01-22T09:41:11.840Z,7.45
2023-01-22T09:42:31.489Z,6.50
2023-01-22T09:43:39.691Z,6.05
2023-01-22T09:44:46.602Z,6.95
2023-01-22T09:45:55.731Z,7.30
2023-01-22T09:47:41.667Z,7.07
2023-01-22T09:48:48.206Z,7.43
2023-01-22T09:50:04.427Z,7.60
2023-01-22T09:51:07.200Z,7.22
2023-01-22T09:52:11.193Z,9.38
2023-01-22T09:53:17.022Z,10.93
2023-01-22T09:54:19.792Z,9.38
2023-01-22T09:55:24.880Z,8.25
2023-01-22T09:56:43.715Z,8.35
2023-01-22T09:57:52.213Z,7.07
2023-01-22T09:58:58.430Z,8.40
2023-01-22T10:00:01.386Z,9.88
2023-01-22T10:01:14.842Z,7.53
2023-01-22T10:02:23.503Z,9.38
2023-01-22T10:03:40.636Z,8.43
2023-01-22T10:04:46.823Z,6.95
2023-01-22T10:05:56.595Z,7.82
2023-01-22T10:07:02.150Z,8.35
2023-01-22T10:08:13.674Z,7.10
2023-01-22T10:09:19.066Z,7.25
2023-01-22T10:10:27.017Z,7.30
2023-01-22T10:11:29.625Z,7.15
2023-01-22T10:12:33.065Z,6.60
2023-01-22T10:13:37.641Z,7.13
2023-01-22T10:14:45.031Z,6.43
2023-01-22T10:15:49.306Z,7.07
2023-01-22T10:16:51.824Z,7.63
2023-01-22T10:17:57.573Z,6.55
2023-01-22T10:19:42.933Z,6.75
2023-01-22T10:20:47.914Z,7.20
2023-01-22T10:22:09.759Z,7.65
2023-01-22T10:23:19.402Z,9.70
2023-01-22T10:24:22.103Z,10.07
2023-01-22T10:25:28.209Z,9.95
2023-01-22T10:26:56.363Z,7.18
2023-01-22T10:28:02.567Z,7.45
2023-01-22T10:29:21.293Z,7.03
2023-01-22T10:30:28.185Z,7.32
2023-01-22T10:31:36.504Z,7.50
2023-01-22T10:32:39.100Z,8.63
2023-01-22T10:33:44.792Z,6.13
2023-01-22T10:35:04.470Z,6.72
2023-01-22T10:36:15.554Z,7.53
2023-01-22T10:37:19.720Z,8.90
2023-01-22T10:38:28.423Z,8.82
2023-01-22T10:39:45.306Z,8.75
2023-01-22T10:40:53.831Z,7.82
2023-01-22T10:42:02.502Z,7.03
2023-01-22T10:43:15.495Z,6.57
2023-01-22T10:44:20.071Z,6.88
2023-01-22T10:45:24.301Z,7.95
2023-01-22T10:46:26.759Z,6.72
2023-01-22T10:47:29.401Z,6.47
2023-01-22T10:48:37.274Z,5.93
2023-01-22T10:49:42.186Z,5.95
2023-01-22T10:50:45.629Z,5.80
2023-01-22T10:51:53.893Z,6.70
2023-01-22T10:52:58.750Z,6.95
2023-01-22T10:54:01.821Z,7.07
2023-01-22T10:55:05.324Z,7.13
2023-01-22T10:56:12.755Z,6.78
2023-01-22T10:57:21.252Z,6.45
2023-01-22T10:58:26.543Z,6.97
2023-01-22T10:59:31.019Z,6.90
2023-01-22T11:00:50.960Z,6.38
2023-01-22T11:02:13.177Z,6.10
2023-01-22T11:03:24.120Z,6.03
2023-01-22T11:04:33.127Z,7.07
2023-01-22T11:05:37.279Z,7.57
2023-01-22T11:06:50.474Z,6.18
2023-01-22T11:07:58.643Z,5.20
2023-01-22T11:09:33.185Z,5.53
2023-01-22T11:10:56.903Z,5.82
2023-01-22T11:12:24.675Z,6.25
2023-01-22T11:13:47.916Z,5.38
2023-01-22T11:15:02.751Z,5.97
2023-01-22T11:16:17.769Z,5.78
2023-01-22T11:17:27.101Z,5.60
2023-01-22T11:18:35.667Z,5.70
2023-01-22T11:19:46.414Z,6.10
2023-01-22T11:20:57.737Z,5.60
2023-01-22T11:22:01.321Z,5.80
2023-01-22T11:23:09.501Z,5.78
2023-01-22T11:24:16.248Z,6.05
2023-01-22T11:25:18.955Z,6.88
2023-01-22T11:26:37.321Z,6.15
2023-01-22T11:28:00.151Z,6.80
2023-01-22T11:29:39.323Z,6.13
2023-01-22T11:30:59.544Z,6.72
2023-01-22T11:32:20.818Z,6.00
2023-01-22T11:33:26.456Z,6.82
2023-01-22T11:34:53.567Z,6.28
2023-01-22T11:36:22.522Z,5.97
2023-01-22T11:37:40.076Z,6.25
2023-01-22T11:39:09.350Z,6.28
2023-01-22T11:41:59.171Z,6.80
2023-01-22T11:43:20.885Z,6.32
2023-01-22T11:44:45.183Z,5.65
2023-01-22T11:46:20.205Z,5.95
2023-01-22T11:47:36.769Z,5.50
2023-01-22T11:49:04.887Z,5.30
2023-01-22T11:50:33.586Z,6.05
2023-01-22T11:51:48.748Z,6.78
2023-01-22T11:53:46.875Z,6.78
2023-01-22T11:55:09.112Z,7.50
2023-01-22T11:56:30.148Z,5.90
2023-01-22T11:57:32.854Z,7.28
2023-01-22T11:58:52.305Z,6.78
2023-01-22T12:00:07.021Z,6.35
2023-01-22T12:01:57.603Z,6.25
2023-01-22T12:03:15.381Z,5.90
2023-01-22T12:04:36.674Z,6.13
2023-01-22T12:05:59.027Z,7.10
2023-01-22T12:07:33.145Z,7.93
2023-01-22T12:08:44.895Z,6.88
2023-01-22T12:10:04.988Z,7.78
2023-01-22T12:11:21.388Z,7.75
2023-01-22T12:12:46.135Z,7.90
2023-01-22T12:13:57.294Z,5.97
2023-01-22T12:15:41.043Z,6.80
2023-01-22T12:16:54.717Z,5.85
2023-01-22T12:18:44.498Z,5.90
2023-01-22T12:19:50.186Z,6.18
2023-01-22T12:21:20.965Z,5.82
2023-01-22T12:22:38.758Z,6.15
2023-01-22T12:23:44.923Z,6.15
2023-01-22T12:24:59.869Z,5.80
2023-01-22T12:26:17.617Z,6.45
2023-01-22T12:27:29.461Z,7.10
2023-01-22T12:28:50.525Z,5.43
2023-01-22T12:30:01.820Z,5.18
2023-01-22T12:31:26.403Z,5.80
2023-01-22T12:32:36.246Z,6.00
2023-01-22T12:33:42.074Z,6.03
2023-01-22T12:34:51.851Z,6.78
2023-01-22T12:35:58.296Z,6.60
2023-01-22T12:37:04.602Z,5.80
2023-01-22T12:38:39.370Z,6.78
2023-01-22T12:40:22.281Z,7.00
2023-01-22T12:41:33.079Z,6.90
2023-01-22T12:42:46.159Z,6.43
2023-01-22T12:43:54.435Z,7.20
2023-01-22T12:45:18.145Z,6.93
2023-01-22T12:46:27.030Z,6.72
2023-01-22T12:47:45.050Z,6.05
2023-01-22T12:48:50.584Z,6.55
2023-01-22T12:49:53.595Z,17.42
2023-01-22T12:50:58.124Z,13.38
2023-01-22T12:52:00.902Z,11.20
2023-01-22T12:53:25.386Z,10.35
2023-01-22T12:54:28.183Z,7.97
2023-01-22T12:55:42.586Z,7.32
2023-01-22T12:56:47.809Z,7.72
2023-01-22T12:57:50.807Z,7.90
2023-01-22T12:58:57.440Z,7.97
2023-01-22T13:00:12.999Z,8.38
2023-01-22T13:01:25.572Z,8.63
2023-01-22T13:02:36.345Z,6.97
2023-01-22T13:03:41.933Z,6.88
2023-01-22T13:04:45.718Z,7.72
2023-01-22T13:05:52.108Z,6.80
2023-01-22T13:07:18.714Z,7.28
2023-01-22T13:08:34.343Z,6.70
2023-01-22T13:09:37.476Z,6.85
2023-01-22T13:10:42.521Z,7.10
2023-01-22T13:11:45.088Z,7.40
2023-01-22T13:12:50.296Z,6.97
2023-01-22T13:14:14.853Z,7.32
2023-01-22T13:15:21.932Z,7.28
2023-01-22T13:16:34.177Z,7.32
2023-01-22T13:17:38.034Z,7.25
2023-01-22T13:19:49.876Z,7.03
2023-01-22T13:20:56.866Z,6.20
2023-01-22T13:22:01.054Z,6.00
2023-01-22T13:23:07.107Z,6.88
2023-01-22T13:24:23.594Z,6.40
2023-01-22T13:26:36.181Z,5.95
2023-01-22T13:27:39.029Z,7.15
2023-01-22T13:28:49.838Z,6.60
2023-01-22T13:29:53.120Z,7.45
2023-01-22T13:31:05.749Z,7.60
2023-01-22T13:32:23.117Z,7.00
2023-01-22T13:33:26.296Z,7.53
2023-01-22T13:34:29.344Z,8.10
2023-01-22T13:35:32.704Z,8.80
2023-01-22T13:36:44.263Z,7.88
2023-01-22T13:37:51.648Z,8.32
2023-01-22T13:38:57.570Z,8.13
2023-01-22T13:40:14.518Z,8.05
2023-01-22T13:41:43.698Z,7.38
2023-01-22T13:42:47.287Z,7.10
2023-01-22T13:43:50.507Z,7.47
2023-01-22T13:44:53.830Z,8.50
2023-01-22T13:45:58.935Z,7.05
2023-01-22T13:47:03.669Z,7.57
2023-01-22T13:48:07.339Z,7.00
2023-01-22T13:49:20.744Z,7.60
2023-01-22T13:50:31.996Z,7.07
2023-01-22T13:51:35.466Z,6.88
2023-01-22T13:52:43.009Z,7.30
2023-01-22T13:53:54.719Z,7.13
2023-01-22T13:55:16.905Z,8.10
2023-01-22T13:56:22.735Z,8.25
2023-01-22T13:57:26.200Z,8.25
2023-01-22T13:58:49.547Z,8.02
2023-01-22T14:00:01.364Z,7.68
2023-01-22T14:01:10.257Z,8.35
2023-01-22T14:02:33.538Z,8.95
2023-01-22T14:03:39.878Z,8.10
2023-01-22T14:04:42.931Z,7.07
2023-01-22T14:05:45.780Z,7.82
2023-01-22T14:06:49.912Z,7.35
2023-01-22T14:08:05.041Z,8.15
2023-01-22T14:09:09.529Z,7.90
2023-01-22T14:10:24.928Z,7.90
2023-01-22T14:11:41.120Z,8.13
2023-01-22T14:12:44.051Z,13.40
2023-01-22T14:13:54.571Z,20.40
2023-01-22T14:14:58.010Z,31.95
2023-01-22T14:16:08.314Z,30.98
2023-01-22T14:17:34.766Z,45.13
2023-01-22T14:18:39.045Z,20.83
2023-01-22T14:19:42.651Z,28.23
2023-01-22T14:20:50.787Z,35.28
2023-01-22T14:21:54.878Z,28.98
2023-01-22T14:22:58.088Z,17.02
2023-01-22T14:24:04.737Z,14.40
2023-01-22T14:25:09.151Z,15.88
2023-01-22T14:26:12.964Z,19.25
2023-01-22T14:27:18.034Z,38.97
2023-01-22T14:28:24.200Z,36.42
2023-01-22T14:29:27.647Z,28.50
2023-01-22T14:30:32.219Z,18.30
2023-01-22T14:31:35.441Z,19.60
2023-01-22T14:32:38.523Z,26.10
2023-01-22T14:33:43.492Z,19.13
2023-01-22T14:34:46.868Z,16.45
2023-01-22T14:35:50.446Z,14.43
2023-01-22T14:36:55.634Z,15.45
2023-01-22T14:37:59.884Z,16.20
2023-01-22T14:39:06.407Z,15.68
2023-01-22T14:40:13.959Z,16.15
2023-01-22T14:41:17.483Z,17.75
2023-01-22T14:42:20.923Z,22.20
2023-01-22T14:43:23.963Z,20.73
2023-01-22T14:44:27.373Z,21.35
2023-01-22T14:45:30.598Z,26.20
2023-01-22T14:46:34.155Z,28.30
2023-01-22T14:47:37.853Z,44.17
2023-01-22T14:48:48.023Z,19.83
2023-01-22T14:49:53.357Z,21.80
2023-01-22T14:50:56.716Z,23.25
2023-01-22T14:52:03.497Z,18.77
2023-01-22T14:53:08.065Z,15.80
2023-01-22T14:54:13.575Z,19.33
2023-01-22T14:55:16.974Z,19.10
2023-01-22T14:56:21.324Z,17.40
2023-01-22T14:57:25.502Z,19.90
2023-01-22T14:58:28.897Z,14.82
2023-01-22T14:59:32.374Z,17.73
2023-01-22T15:00:35.909Z,14.40
2023-01-22T15:01:39.706Z,13.95
2023-01-22T15:02:44.584Z,12.80
2023-01-22T15:03:47.791Z,16.65